EPZG

Details ICAO EPZG (IEG)
Name ZIELONA GORA BABIMOST
Region Poland
Timezone Europe/Warsaw (UTC+2.0)
Plans Departing 44
Arriving 43
Stats Elevation 193 ft / 59 m (AMSL)
Location 52.138633° 15.798400°
Runways 1
Magnetic Variation 4.483° E
Sunrise 2018-05-22 02:54:12 UTC / 2018-05-22 04:54:12 Local
Sunset 2018-05-22 18:55:36 UTC / 2018-05-22 20:55:36 Local
Advertisement - Login to hide

Runways

ID Width Length Bearing (true) Bearing (mag) Surface Threshold Offset Overrun Length
06 197 ft / 60 m 8,169 ft / 2,490 m 64.50° 60.02° Concrete 0 ft / 0 m 0 ft / 0 m
24 197 ft / 60 m 8,169 ft / 2,490 m 244.52° 240.04° Concrete 0 ft / 0 m 0 ft / 0 m

Map

Weather


0- 5 10 15 20 25 30 35+ Temperature / ° C

Clouds and Precipitation
Forecast for 2018-05-22 18:00 UTC. Updated 3 hours ago

Ground ~20,000 ft ~40,000 ft Winds

METAR

EPZG 222000Z 00000KT CAVOK 15/06 Q1017

TAF

Not found

Frequencies

Tower 118.75 MHz ZIELONA GORA TOWER
Warning: Do not use this data for real-world aviation or navigation. No guarantee of current accuracy is given.